Time;durP1;ratioP1;P1;durP2;ratioP2;P2;SDS_P1;SDS_P2;PMS_P1;PMS_P2;Temp;Humidity;BMP_temperature;BMP_pressure;BME280_temperature;BME280_humidity;BME280_pressure;Samples;Min_cycle;Max_cycle;Signal;HPM_P1;HPM_P2
2022/05/08 00:02:12;;;;;;;31.60;28.47;;;13.60;1.00;;;;;;5079643;28;20497;-60
2022/05/08 00:04:40;;;;;;;32.67;29.23;;;13.70;1.00;;;;;;5079849;28;20523;-60
2022/05/08 00:07:12;;;;;;;32.83;29.33;;;13.70;1.00;;;;;;5079550;28;20916;-60
2022/05/08 00:09:42;;;;;;;31.93;28.73;;;13.70;99.90;;;;;;5079958;28;20759;-60
2022/05/08 00:12:11;;;;;;;33.13;29.77;;;13.70;99.90;;;;;;5079797;28;20457;-60
2022/05/08 00:14:38;;;;;;;35.37;31.77;;;13.70;99.90;;;;;;5080031;28;20465;-60
2022/05/08 00:17:11;;;;;;;36.50;32.87;;;13.70;99.90;;;;;;5079340;28;20921;-60
2022/05/08 00:19:40;;;;;;;39.47;31.97;;;13.60;99.90;;;;;;5078156;28;20804;-60
2022/05/08 00:22:07;;;;;;;36.40;32.47;;;13.70;99.90;;;;;;5079730;28;20492;-60
2022/05/08 00:24:37;;;;;;;35.33;31.87;;;13.60;99.90;;;;;;5079946;28;20877;-60
2022/05/08 00:27:04;;;;;;;37.00;33.20;;;13.60;99.90;;;;;;5080138;28;20465;-60
2022/05/08 00:29:32;;;;;;;34.93;30.13;;;13.50;1.00;;;;;;5078428;28;20514;-60
2022/05/08 00:31:59;;;;;;;35.17;30.20;;;13.60;1.00;;;;;;5079404;28;20511;-60
2022/05/08 00:34:27;;;;;;;32.03;28.73;;;13.50;99.90;;;;;;5078349;28;20462;-60
2022/05/08 00:36:55;;;;;;;29.63;26.43;;;13.50;1.00;;;;;;5079772;28;20469;-60
2022/05/08 00:39:24;;;;;;;28.70;25.60;;;13.40;1.00;;;;;;5079164;28;20489;-60
2022/05/08 00:41:51;;;;;;;30.67;27.40;;;13.30;99.90;;;;;;5079630;28;20461;-60
2022/05/08 00:44:21;;;;;;;29.13;26.13;;;13.30;99.90;;;;;;5079417;28;20465;-61
2022/05/08 00:46:49;;;;;;;26.43;23.80;;;13.30;1.00;;;;;;5079636;28;20462;-60
2022/05/08 00:49:16;;;;;;;25.73;22.97;;;13.20;1.00;;;;;;5079236;28;20933;-61
2022/05/08 00:51:49;;;;;;;25.20;22.70;;;13.20;99.90;;;;;;5079608;28;20497;-60
2022/05/08 00:54:18;;;;;;;27.40;23.83;;;13.10;1.00;;;;;;5079421;28;20465;-60
2022/05/08 00:56:47;;;;;;;26.00;23.40;;;13.10;99.90;;;;;;5079274;28;20468;-60
2022/05/08 00:59:14;;;;;;;24.80;21.33;;;13.10;1.00;;;;;;5078753;28;20472;-60
2022/05/08 01:01:50;;;;;;;25.13;21.07;;;13.00;99.90;;;;;;5077930;28;20461;-60
2022/05/08 01:04:16;;;;;;;22.43;20.10;;;13.00;99.90;;;;;;5078997;28;20902;-60
2022/05/08 01:06:46;;;;;;;26.13;21.13;;;12.90;1.00;;;;;;5078733;28;20462;-60
2022/05/08 01:09:22;;;;;;;23.17;20.70;;;12.90;1.00;;;;;;5078973;28;20465;-60
2022/05/08 01:11:54;;;;;;;22.60;20.40;;;12.90;1.00;;;;;;5078440;28;20493;-60
2022/05/08 01:14:22;;;;;;;22.60;19.50;;;12.90;99.90;;;;;;5078981;28;20879;-61
2022/05/08 01:16:53;;;;;;;21.07;18.80;;;12.90;1.00;;;;;;5078774;28;20853;-60
2022/05/08 01:19:23;;;;;;;21.17;18.80;;;12.90;99.90;;;;;;5079323;28;20468;-60
2022/05/08 01:21:53;;;;;;;20.00;17.80;;;12.80;99.90;;;;;;5078096;28;20519;-61
2022/05/08 01:24:24;;;;;;;18.87;16.87;;;12.80;99.90;;;;;;5078937;28;20467;-60
2022/05/08 01:26:55;;;;;;;19.83;16.43;;;12.80;1.00;;;;;;5078985;28;20564;-60
2022/05/08 01:29:24;;;;;;;18.67;16.67;;;12.60;1.00;;;;;;5078895;28;20467;-61
2022/05/08 01:31:58;;;;;;;17.90;14.30;;;12.50;1.00;;;;;;5077880;28;20469;-60
2022/05/08 01:34:25;;;;;;;17.80;15.33;;;12.50;1.00;;;;;;5078718;28;20457;-60
2022/05/08 01:37:07;;;;;;;16.50;14.90;;;12.50;1.00;;;;;;5076851;28;20514;-60
2022/05/08 01:39:36;;;;;;;15.17;13.30;;;12.50;1.00;;;;;;5077871;28;20461;-60
2022/05/08 01:42:06;;;;;;;15.00;13.10;;;12.40;99.90;;;;;;5078124;28;20457;-61
2022/05/08 01:44:33;;;;;;;17.73;13.70;;;12.40;99.90;;;;;;5078451;28;20512;-60
2022/05/08 01:49:41;;;;;;;14.70;13.17;;;12.30;99.90;;;;;;5076581;28;20772;-60
2022/05/08 01:52:10;;;;;;;15.50;12.00;;;12.30;99.90;;;;;;5076579;28;20457;-61
2022/05/08 01:54:37;;;;;;;16.10;13.07;;;12.20;99.90;;;;;;5077144;28;20955;-60
2022/05/08 01:57:04;;;;;;;14.93;12.37;;;12.20;99.90;;;;;;5077809;28;20522;-60
2022/05/08 01:59:31;;;;;;;14.10;12.60;;;12.20;99.90;;;;;;5076835;28;20461;-60
2022/05/08 02:02:04;;;;;;;13.83;11.53;;;12.20;99.90;;;;;;5077760;28;20877;-60
2022/05/08 02:04:36;;;;;;;14.37;12.17;;;12.20;99.90;;;;;;5077834;28;20889;-60
2022/05/08 02:07:06;;;;;;;12.20;11.00;;;12.10;99.90;;;;;;5078218;28;20461;-60
2022/05/08 02:09:39;;;;;;;16.57;11.87;;;12.10;99.90;;;;;;5077658;28;20519;-59
2022/05/08 02:12:06;;;;;;;14.90;12.10;;;12.00;99.90;;;;;;5077799;28;20458;-59
2022/05/08 02:14:33;;;;;;;14.57;11.20;;;12.00;99.90;;;;;;5077456;28;20955;-59
2022/05/08 02:17:00;;;;;;;16.60;12.60;;;12.00;99.90;;;;;;5077310;28;20492;-60
2022/05/08 02:19:27;;;;;;;15.60;11.37;;;12.00;99.90;;;;;;5077208;28;20902;-59
2022/05/08 02:22:03;;;;;;;17.30;12.40;;;11.90;99.90;;;;;;5077184;28;20516;-60
2022/05/08 02:24:43;;;;;;;12.20;11.00;;;11.90;99.90;;;;;;5077766;28;20511;-60
2022/05/08 02:27:10;;;;;;;12.40;11.10;;;11.90;99.90;;;;;;5077590;28;20548;-60
2022/05/08 02:29:37;;;;;;;13.67;11.67;;;11.80;99.90;;;;;;5076841;28;20897;-59
2022/05/08 02:32:05;;;;;;;15.63;11.60;;;11.80;99.90;;;;;;5077445;28;20461;-60
2022/05/08 02:34:35;;;;;;;14.23;12.73;;;11.90;99.90;;;;;;5077271;28;20508;-60
2022/05/08 02:37:04;;;;;;;13.97;12.03;;;11.80;95.90;;;;;;5076340;28;20439;-60
2022/05/08 02:39:31;;;;;;;16.37;12.03;;;11.70;79.90;;;;;;5076455;28;20464;-59
2022/05/08 02:42:00;;;;;;;13.73;11.70;;;11.70;68.30;;;;;;5076359;28;20498;-60
2022/05/08 02:44:27;;;;;;;16.17;12.20;;;11.70;91.50;;;;;;5077022;28;20983;-60
2022/05/08 02:46:54;;;;;;;17.20;13.27;;;11.70;99.90;;;;;;5077630;28;20522;-60
2022/05/08 02:49:21;;;;;;;15.80;12.33;;;11.70;99.10;;;;;;5077575;28;20501;-59
2022/05/08 02:51:49;;;;;;;15.23;13.63;;;11.60;99.90;;;;;;5076193;28;20461;-60
2022/05/08 02:54:21;;;;;;;17.30;14.10;;;11.50;99.90;;;;;;5076510;28;20465;-60
2022/05/08 02:59:42;;;;;;;15.80;14.10;;;11.40;99.90;;;;;;5076403;28;20444;-60
2022/05/08 03:02:12;;;;;;;15.10;13.50;;;11.50;99.90;;;;;;5076810;28;20458;-60
2022/05/08 03:04:39;;;;;;;16.73;14.93;;;11.40;99.90;;;;;;5076887;28;20922;-60
2022/05/08 03:07:06;;;;;;;20.17;15.97;;;11.30;99.90;;;;;;5076580;28;20461;-59
2022/05/08 03:09:36;;;;;;;19.60;14.43;;;11.20;99.90;;;;;;5076457;28;20507;-59
2022/05/08 03:12:03;;;;;;;23.77;15.93;;;11.20;99.90;;;;;;5076915;28;20465;-61
2022/05/08 03:14:31;;;;;;;16.33;14.27;;;11.10;99.90;;;;;;5076981;28;20833;-60
2022/05/08 03:17:04;;;;;;;17.80;14.60;;;11.20;99.90;;;;;;5075928;28;20859;-61
2022/05/08 03:19:34;;;;;;;17.03;13.97;;;11.30;99.90;;;;;;5075950;28;20755;-61
2022/05/08 03:22:01;;;;;;;19.03;13.23;;;11.10;99.90;;;;;;5056533;28;20495;-61
2022/05/08 03:24:29;;;;;;;22.27;14.90;;;11.10;99.90;;;;;;5059303;28;20462;-61
2022/05/08 03:26:59;;;;;;;14.73;12.80;;;11.10;94.00;;;;;;5071055;28;20487;-61
2022/05/08 03:29:29;;;;;;;22.93;13.40;;;11.10;54.40;;;;;;5081474;28;20944;-61
2022/05/08 03:31:56;;;;;;;16.70;12.47;;;11.10;42.20;;;;;;5080247;28;20457;-61
2022/05/08 03:34:25;;;;;;;17.20;13.23;;;11.00;10.80;;;;;;5080976;28;20522;-61
2022/05/08 03:36:52;;;;;;;13.87;12.33;;;11.00;18.50;;;;;;5080646;28;20846;-61
2022/05/08 03:39:21;;;;;;;15.63;13.23;;;10.90;25.70;;;;;;5080498;28;20496;-61
2022/05/08 03:41:53;;;;;;;20.43;15.77;;;10.90;9.30;;;;;;5080057;28;20496;-61
2022/05/08 03:44:22;;;;;;;20.90;17.50;;;10.90;26.30;;;;;;5080634;28;20467;-61
2022/05/08 03:46:52;;;;;;;18.40;14.07;;;10.80;1.00;;;;;;5080193;28;20465;-61
2022/05/08 03:49:22;;;;;;;16.63;14.83;;;10.70;1.00;;;;;;5080745;28;20908;-61
2022/05/08 03:51:50;;;;;;;18.10;15.50;;;10.60;64.30;;;;;;5080015;28;20462;-61
2022/05/08 03:54:22;;;;;;;19.87;14.63;;;10.60;95.40;;;;;;5080468;28;20538;-61
2022/05/08 03:56:51;;;;;;;24.63;16.43;;;10.60;50.40;;;;;;5080440;28;20476;-61
2022/05/08 03:59:22;;;;;;;22.17;15.20;;;10.60;60.10;;;;;;5079875;28;20511;-61
2022/05/08 04:01:49;;;;;;;19.20;13.30;;;10.60;60.10;;;;;;5080011;28;20507;-61
2022/05/08 04:04:17;;;;;;;17.30;13.10;;;10.50;2.90;;;;;;5080040;28;21397;-61
2022/05/08 04:06:44;;;;;;;18.90;14.97;;;10.50;1.00;;;;;;5080195;28;20522;-61
2022/05/08 04:09:14;;;;;;;19.20;12.30;;;10.30;1.00;;;;;;5079581;28;20469;-60
2022/05/08 04:11:49;;;;;;;16.87;11.20;;;10.40;1.00;;;;;;5080048;28;20460;-61
2022/05/08 04:14:23;;;;;;;14.20;10.83;;;10.30;1.00;;;;;;5080110;28;20457;-61
2022/05/08 04:16:50;;;;;;;15.97;10.87;;;10.20;1.00;;;;;;5079843;28;20937;-61
2022/05/08 04:19:17;;;;;;;20.50;11.43;;;10.00;1.00;;;;;;5079517;28;20497;-61
2022/05/08 04:21:44;;;;;;;14.60;11.10;;;9.90;1.00;;;;;;5079873;28;20929;-61
2022/05/08 04:24:17;;;;;;;19.40;11.47;;;9.90;1.00;;;;;;5079465;28;20495;-60
2022/05/08 04:26:47;;;;;;;18.93;11.33;;;9.90;1.00;;;;;;5080482;28;20461;-61
2022/05/08 04:29:14;;;;;;;13.27;10.33;;;10.00;1.00;;;;;;5079375;28;20461;-61
2022/05/08 04:31:44;;;;;;;19.63;11.30;;;10.00;1.00;;;;;;5078923;28;20458;-61
2022/05/08 04:34:11;;;;;;;23.03;11.77;;;10.10;1.00;;;;;;5078989;28;20462;-61
2022/05/08 04:36:44;;;;;;;17.67;10.50;;;10.00;1.00;;;;;;5079673;28;20501;-61
2022/05/08 04:39:13;;;;;;;22.37;11.27;;;10.00;1.00;;;;;;5079264;28;20882;-61
2022/05/08 04:41:40;;;;;;;19.10;12.33;;;10.00;1.00;;;;;;5079453;28;20499;-61
2022/05/08 04:44:07;;;;;;;19.80;10.60;;;9.80;1.00;;;;;;5079151;28;20508;-60
2022/05/08 04:46:40;;;;;;;13.50;10.17;;;9.90;1.00;;;;;;5079625;28;20772;-60
2022/05/08 04:49:10;;;;;;;17.20;10.17;;;9.90;1.00;;;;;;5079278;28;20515;-61
2022/05/08 04:51:37;;;;;;;15.27;9.60;;;10.00;1.00;;;;;;5078602;28;20540;-61
2022/05/08 04:54:07;;;;;;;25.13;10.67;;;10.00;1.00;;;;;;5078818;28;20472;-60
2022/05/08 04:56:35;;;;;;;17.57;8.67;;;9.90;1.00;;;;;;5079078;28;20512;-60
2022/05/08 04:59:05;;;;;;;21.37;10.37;;;9.90;1.00;;;;;;5079396;28;20523;-60
2022/05/08 05:01:35;;;;;;;17.30;9.60;;;9.90;1.00;;;;;;5077794;28;20463;-60
2022/05/08 05:04:02;;;;;;;17.83;9.93;;;9.70;1.00;;;;;;5078070;28;20497;-60
2022/05/08 05:06:32;;;;;;;23.63;9.33;;;9.70;1.00;;;;;;5078799;28;20813;-60
2022/05/08 05:09:04;;;;;;;15.73;8.93;;;9.80;1.00;;;;;;5079284;28;20461;-60
2022/05/08 05:11:36;;;;;;;15.33;9.03;;;9.90;1.00;;;;;;5078000;28;20548;-60
2022/05/08 05:14:13;;;;;;;14.87;8.70;;;10.00;1.00;;;;;;5078145;28;20813;-60
2022/05/08 05:16:56;;;;;;;21.03;9.63;;;10.00;1.00;;;;;;5078202;28;20489;-60
2022/05/08 05:19:34;;;;;;;15.53;8.67;;;10.00;1.00;;;;;;5079080;28;20538;-60
2022/05/08 05:22:01;;;;;;;25.03;8.83;;;10.00;1.00;;;;;;5078403;28;20514;-60
2022/05/08 05:24:30;;;;;;;23.40;9.10;;;10.10;1.00;;;;;;5078866;28;20475;-60
2022/05/08 05:26:59;;;;;;;21.47;8.90;;;10.20;1.00;;;;;;5077934;28;20944;-59
2022/05/08 05:29:35;;;;;;;17.43;8.13;;;10.10;1.00;;;;;;5078874;28;20461;-59
2022/05/08 05:32:03;;;;;;;13.17;7.97;;;10.10;1.00;;;;;;5077269;28;20449;-60
2022/05/08 05:34:30;;;;;;;18.10;8.63;;;10.10;1.00;;;;;;5077776;28;20449;-60
2022/05/08 05:36:59;;;;;;;12.90;7.70;;;9.90;1.00;;;;;;5077643;28;20469;-60
2022/05/08 05:39:29;;;;;;;15.23;8.10;;;10.00;1.00;;;;;;5078623;28;20461;-60
2022/05/08 05:41:56;;;;;;;18.17;8.27;;;10.00;1.00;;;;;;5077784;28;20497;-60
2022/05/08 05:44:23;;;;;;;19.13;7.13;;;10.20;1.00;;;;;;5078286;28;20465;-60
2022/05/08 05:49:44;;;;;;;20.80;7.63;;;10.30;1.00;;;;;;5077790;28;20415;-60
2022/05/08 05:52:13;;;;;;;16.67;9.00;;;10.30;1.00;;;;;;5077384;28;20454;-60
2022/05/08 05:54:41;;;;;;;15.23;7.73;;;10.10;1.00;;;;;;5078133;28;20515;-60
2022/05/08 05:57:10;;;;;;;19.80;8.70;;;10.20;1.00;;;;;;5077101;28;20457;-59
2022/05/08 05:59:39;;;;;;;16.30;7.97;;;10.30;1.00;;;;;;5077911;28;20519;-60
2022/05/08 06:02:13;;;;;;;18.10;7.80;;;10.30;1.00;;;;;;5077482;28;20547;-60
2022/05/08 06:04:43;;;;;;;15.57;8.57;;;10.40;1.00;;;;;;5077401;28;20951;-59
2022/05/08 06:07:10;;;;;;;17.67;8.03;;;10.60;1.00;;;;;;5077766;28;20461;-60
2022/05/08 06:09:37;;;;;;;24.30;10.10;;;10.60;1.00;;;;;;5077531;28;20465;-60
2022/05/08 06:12:05;;;;;;;19.57;8.60;;;10.70;1.00;;;;;;5077817;28;20800;-59
2022/05/08 06:14:37;;;;;;;18.93;8.73;;;10.80;1.00;;;;;;5077014;28;20978;-60
2022/05/08 06:17:07;;;;;;;20.00;9.70;;;11.00;1.00;;;;;;5077366;28;20476;-59
2022/05/08 06:19:34;;;;;;;16.10;8.97;;;11.10;1.00;;;;;;5076909;28;20461;-59
2022/05/08 06:22:04;;;;;;;18.40;8.73;;;11.20;1.00;;;;;;5077535;28;20941;-59
2022/05/08 06:24:33;;;;;;;20.90;8.50;;;11.70;1.00;;;;;;5077519;28;20461;-60
2022/05/08 06:27:00;;;;;;;24.27;9.13;;;12.10;99.90;;;;;;5077249;28;20505;-60
2022/05/08 06:29:30;;;;;;;20.73;7.90;;;12.30;99.90;;;;;;5077760;28;20481;-60
2022/05/08 06:32:03;;;;;;;20.77;8.73;;;12.30;99.90;;;;;;5076937;28;20460;-60
2022/05/08 06:34:38;;;;;;;16.73;8.53;;;11.90;99.90;;;;;;5077776;28;20876;-59
2022/05/08 06:37:11;;;;;;;23.57;10.23;;;11.50;99.90;;;;;;5077544;28;20460;-60
2022/05/08 06:39:38;;;;;;;14.50;8.60;;;11.30;99.90;;;;;;5076465;28;20468;-60
2022/05/08 06:42:07;;;;;;;22.93;8.97;;;11.20;99.90;;;;;;5076703;28;20455;-60
2022/05/08 06:44:34;;;;;;;24.13;9.37;;;11.30;99.90;;;;;;5077540;28;20487;-60
2022/05/08 06:47:01;;;;;;;20.13;10.27;;;11.20;99.90;;;;;;5077392;28;20461;-60
2022/05/08 06:49:37;;;;;;;16.93;7.70;;;11.30;99.90;;;;;;5076313;28;20461;-60
2022/05/08 06:52:08;;;;;;;15.57;7.40;;;11.40;99.90;;;;;;5077463;28;20905;-60
2022/05/08 06:54:39;;;;;;;21.40;8.17;;;11.40;99.90;;;;;;5057488;28;20532;-60
2022/05/08 06:57:07;;;;;;;18.10;8.70;;;11.50;99.90;;;;;;5057290;28;20829;-60
2022/05/08 07:02:27;;;;;;;12.70;7.67;;;11.30;99.90;;;;;;5076782;28;20484;-60
2022/05/08 07:04:59;;;;;;;14.47;8.27;;;11.50;99.90;;;;;;5076810;28;20461;-60
2022/05/08 07:07:34;;;;;;;16.57;8.33;;;11.50;99.90;;;;;;5076998;28;20515;-60
2022/05/08 07:10:03;;;;;;;15.43;7.77;;;11.30;99.90;;;;;;5076449;28;20460;-60
2022/05/08 07:12:35;;;;;;;15.53;8.27;;;11.50;99.90;;;;;;5077091;28;20453;-60
2022/05/08 07:15:13;;;;;;;17.07;7.97;;;11.60;99.90;;;;;;5076216;28;20776;-60
2022/05/08 07:17:44;;;;;;;20.80;8.17;;;11.50;99.90;;;;;;5076592;28;20839;-60
2022/05/08 07:20:15;;;;;;;18.37;8.80;;;11.40;99.90;;;;;;5076059;28;20544;-60
2022/05/08 07:22:44;;;;;;;14.63;8.47;;;11.70;99.90;;;;;;5076914;28;20493;-60
2022/05/08 07:25:17;;;;;;;18.57;9.63;;;11.70;99.90;;;;;;5076174;28;20520;-61
2022/05/08 07:27:45;;;;;;;17.40;9.33;;;11.70;99.90;;;;;;5076749;28;20821;-61
2022/05/08 07:30:15;;;;;;;19.33;8.87;;;11.60;99.90;;;;;;5075803;28;20465;-61
2022/05/08 07:32:48;;;;;;;18.73;9.40;;;11.70;99.90;;;;;;5076691;28;20504;-60
2022/05/08 07:38:16;;;;;;;14.57;8.70;;;11.80;99.90;;;;;;5074898;28;20885;-61
2022/05/08 07:40:47;;;;;;;17.00;8.53;;;11.90;99.90;;;;;;5073866;28;20552;-60
2022/05/08 07:43:15;;;;;;;18.13;9.70;;;12.10;99.90;;;;;;5076316;28;20489;-61
2022/05/08 07:45:43;;;;;;;17.53;8.87;;;12.40;99.90;;;;;;5076038;28;20519;-61
2022/05/08 07:48:10;;;;;;;20.43;9.10;;;12.40;99.90;;;;;;5076599;28;20461;-60
2022/05/08 07:50:42;;;;;;;16.67;8.70;;;12.80;99.90;;;;;;5076347;28;20822;-60
2022/05/08 07:53:15;;;;;;;15.93;8.57;;;13.20;99.90;;;;;;5075604;28;20920;-61
2022/05/08 07:55:42;;;;;;;16.27;8.50;;;13.30;99.90;;;;;;5074910;28;20474;-60
2022/05/08 07:58:21;;;;;;;19.47;8.57;;;13.60;99.90;;;;;;5076214;28;20812;-61
2022/05/08 08:00:54;;;;;;;20.57;9.03;;;13.60;99.90;;;;;;5075542;28;20476;-61
2022/05/08 08:03:21;;;;;;;19.83;7.63;;;13.80;99.90;;;;;;5075217;28;20489;-61
2022/05/08 08:05:49;;;;;;;17.20;8.97;;;13.80;99.90;;;;;;5075941;28;20738;-61
2022/05/08 08:08:23;;;;;;;13.30;8.10;;;13.90;99.90;;;;;;5076205;28;20461;-61
2022/05/08 08:10:59;;;;;;;11.40;7.03;;;14.30;99.90;;;;;;5079373;28;20465;-61
2022/05/08 08:13:29;;;;;;;17.80;9.20;;;14.30;99.90;;;;;;5077085;28;20816;-61
2022/05/08 08:15:57;;;;;;;15.37;7.67;;;14.20;99.90;;;;;;5077579;28;20472;-61
2022/05/08 08:18:25;;;;;;;12.70;7.20;;;14.50;99.90;;;;;;5059597;28;20767;-61
2022/05/08 08:20:57;;;;;;;13.20;6.53;;;14.60;99.90;;;;;;5078592;28;20457;-61
2022/05/08 08:23:29;;;;;;;9.30;5.37;;;14.90;99.90;;;;;;5079025;28;20928;-61
2022/05/08 08:25:56;;;;;;;11.10;7.33;;;15.10;99.90;;;;;;5079653;28;20796;-61
2022/05/08 08:28:23;;;;;;;14.20;6.93;;;14.80;99.90;;;;;;5079480;28;20457;-61
2022/05/08 08:30:50;;;;;;;16.93;7.33;;;15.00;99.90;;;;;;5079888;28;20465;-61
2022/05/08 08:33:17;;;;;;;15.43;7.17;;;15.00;99.90;;;;;;5077605;28;20453;-60
2022/05/08 08:35:50;;;;;;;17.33;7.97;;;15.40;99.90;;;;;;5074019;28;20548;-61
2022/05/08 08:38:18;;;;;;;14.07;6.67;;;16.10;99.90;;;;;;5074421;28;20500;-61
2022/05/08 08:40:57;;;;;;;12.70;6.73;;;16.50;99.90;;;;;;5076798;28;20554;-61
2022/05/08 08:43:27;;;;;;;12.20;6.73;;;17.00;99.90;;;;;;5076545;28;21702;-61
2022/05/08 08:48:46;;;;;;;9.97;5.83;;;17.70;99.90;;;;;;5033288;28;20447;-61
2022/05/08 08:51:13;;;;;;;14.30;6.10;;;17.90;99.90;;;;;;5078506;28;20461;-61
2022/05/08 08:53:43;;;;;;;10.27;6.13;;;17.60;99.90;;;;;;5078252;28;20836;-60
2022/05/08 08:56:11;;;;;;;12.20;5.93;;;17.80;99.90;;;;;;5077725;28;20825;-59
2022/05/08 08:58:38;;;;;;;10.23;5.30;;;18.20;99.90;;;;;;5078063;28;20515;-60
2022/05/08 09:01:09;;;;;;;11.17;6.03;;;18.20;99.90;;;;;;5078438;28;20465;-60
2022/05/08 09:03:36;;;;;;;9.33;5.73;;;18.50;99.90;;;;;;5074913;28;20508;-60
2022/05/08 09:06:08;;;;;;;13.73;6.33;;;18.10;99.90;;;;;;5078627;28;20457;-60
2022/05/08 09:08:35;;;;;;;11.07;6.13;;;17.90;99.90;;;;;;5077625;28;20555;-59
2022/05/08 09:11:04;;;;;;;15.13;5.70;;;18.10;99.90;;;;;;5078747;28;20877;-60
2022/05/08 09:13:34;;;;;;;13.07;6.23;;;18.30;99.90;;;;;;5076707;28;20470;-60
2022/05/08 09:16:02;;;;;;;11.27;6.90;;;17.30;99.90;;;;;;5077183;28;20474;-60
2022/05/08 09:18:43;;;;;;;11.30;5.80;;;16.30;99.90;;;;;;5077242;28;20798;-60
2022/05/08 09:24:13;;;;;;;11.07;5.83;;;16.30;99.90;;;;;;5077515;28;20827;-61
2022/05/08 09:26:42;;;;;;;13.73;5.90;;;17.10;99.90;;;;;;5077536;28;20508;-61
2022/05/08 09:29:21;;;;;;;13.17;6.20;;;17.60;99.90;;;;;;5077466;28;20815;-61
2022/05/08 09:31:48;;;;;;;8.83;5.33;;;17.90;99.90;;;;;;5073656;28;20465;-61
2022/05/08 09:34:18;;;;;;;12.10;5.90;;;18.00;99.90;;;;;;5075046;28;20489;-61
2022/05/08 09:36:49;;;;;;;10.43;6.37;;;18.60;99.90;;;;;;5076693;28;20457;-61
2022/05/08 09:39:23;;;;;;;13.10;6.37;;;19.30;99.90;;;;;;5076016;28;20523;-61
2022/05/08 09:41:53;;;;;;;11.97;6.83;;;20.00;99.90;;;;;;5056181;28;20467;-61
2022/05/08 09:44:20;;;;;;;12.83;6.00;;;19.80;99.90;;;;;;5074871;28;20477;-60
2022/05/08 09:47:00;;;;;;;13.33;6.60;;;19.90;99.90;;;;;;5075048;28;20966;-61
2022/05/08 09:49:34;;;;;;;10.93;5.83;;;19.90;99.90;;;;;;5075973;28;20886;-61
2022/05/08 09:52:04;;;;;;;11.07;5.83;;;20.40;99.90;;;;;;5068141;28;20469;-61
2022/05/08 09:54:31;;;;;;;13.60;6.10;;;20.00;99.90;;;;;;5077578;28;20457;-61
2022/05/08 09:57:01;;;;;;;8.40;5.43;;;20.20;99.90;;;;;;5077646;28;20518;-61
2022/05/08 09:59:28;;;;;;;13.10;6.80;;;20.00;99.90;;;;;;5071378;28;21343;-61
2022/05/08 10:02:05;;;;;;;10.77;6.23;;;20.60;99.90;;;;;;5073523;28;20531;-61
2022/05/08 10:04:36;;;;;;;10.87;6.23;;;21.00;99.90;;;;;;5076496;28;20828;-61
2022/05/08 10:07:04;;;;;;;9.57;5.90;;;21.00;99.90;;;;;;5076949;28;20465;-61
2022/05/08 10:15:16;;;;;;;9.77;6.03;;;20.20;99.90;;;;;;5073016;28;20468;-61
2022/05/08 10:17:46;;;;;;;11.97;6.60;;;20.80;99.90;;;;;;5076188;28;20528;-61
2022/05/08 10:20:16;;;;;;;10.83;5.70;;;20.60;99.90;;;;;;5073292;28;20598;-61
2022/05/08 10:22:51;;;;;;;11.13;5.93;;;21.00;99.90;;;;;;5075860;28;20556;-62
2022/05/08 10:25:17;;;;;;;10.80;5.30;;;20.70;99.90;;;;;;5076472;28;20532;-61
2022/05/08 10:28:09;;;;;;;11.37;5.77;;;20.80;99.90;;;;;;5071877;28;20914;-60
2022/05/08 10:30:36;;;;;;;8.20;5.53;;;20.20;99.90;;;;;;5076092;28;20575;-61
2022/05/08 10:33:05;;;;;;;7.90;6.10;;;19.70;99.90;;;;;;5076848;28;20461;-61
2022/05/08 10:35:33;;;;;;;9.80;5.60;;;19.90;99.90;;;;;;5075351;28;20938;-61
2022/05/08 10:38:24;;;;;;;8.10;5.10;;;20.10;99.90;;;;;;5076076;28;20453;-60
2022/05/08 10:40:55;;;;;;;5.70;4.53;;;20.50;99.90;;;;;;5076947;28;20506;-61
2022/05/08 10:43:33;;;;;;;6.37;4.60;;;20.00;99.90;;;;;;5075743;28;20584;-61
2022/05/08 10:46:24;;;;;;;8.10;4.83;;;20.60;99.90;;;;;;5076736;28;20797;-59
2022/05/08 10:48:54;;;;;;;10.70;5.43;;;20.90;99.90;;;;;;5067401;28;20466;-60
2022/05/08 10:51:22;;;;;;;8.90;5.60;;;21.10;99.90;;;;;;5077714;28;20515;-60
2022/05/08 10:53:52;;;;;;;8.07;5.47;;;21.40;99.90;;;;;;5076839;28;20508;-60
2022/05/08 10:56:24;;;;;;;6.67;5.27;;;21.20;99.90;;;;;;5076036;28;20482;-61
2022/05/08 10:58:55;;;;;;;9.67;6.00;;;21.10;99.90;;;;;;5076990;28;20461;-60
2022/05/08 11:01:23;;;;;;;7.10;5.10;;;20.80;99.90;;;;;;5072049;28;21044;-61
2022/05/08 11:03:57;;;;;;;8.60;5.20;;;20.80;99.90;;;;;;5063490;28;20539;-61
2022/05/08 11:06:26;;;;;;;6.80;4.33;;;21.10;99.90;;;;;;5071881;28;20912;-61
2022/05/08 11:09:00;;;;;;;4.90;4.10;;;21.10;99.90;;;;;;5075439;28;20814;-60
2022/05/08 11:11:30;;;;;;;9.03;3.90;;;21.10;99.90;;;;;;5075128;28;20461;-60
2022/05/08 11:14:22;;;;;;;6.37;4.30;;;21.50;99.90;;;;;;5074986;28;20450;-61
2022/05/08 11:16:51;;;;;;;6.77;4.33;;;21.90;99.90;;;;;;5072823;28;20504;-61
2022/05/08 11:19:18;;;;;;;5.63;4.00;;;21.80;99.90;;;;;;5075581;28;20461;-61
2022/05/08 11:21:47;;;;;;;5.53;3.93;;;21.90;99.90;;;;;;5075453;28;20511;-61
2022/05/08 11:24:24;;;;;;;5.70;3.70;;;21.90;99.90;;;;;;5070529;28;20498;-61
2022/05/08 11:26:51;;;;;;;5.37;3.50;;;21.60;99.90;;;;;;5067298;28;20973;-61
2022/05/08 11:29:22;;;;;;;6.43;4.43;;;21.70;99.90;;;;;;5075437;28;21044;-61
2022/05/08 11:37:23;;;;;;;8.00;3.87;;;21.60;99.90;;;;;;5074474;28;20811;-60
2022/05/08 11:39:57;;;;;;;6.70;3.80;;;21.90;99.90;;;;;;5073446;28;20453;-61
2022/05/08 11:42:24;;;;;;;6.60;4.00;;;21.70;99.90;;;;;;5074986;28;20463;-61
2022/05/08 11:45:11;;;;;;;4.30;3.30;;;21.60;99.90;;;;;;5075808;28;20465;-60
2022/05/08 11:47:41;;;;;;;5.50;4.00;;;21.70;99.90;;;;;;5075860;28;20534;-61
2022/05/08 11:50:10;;;;;;;5.43;3.20;;;22.40;99.90;;;;;;5079612;28;20498;-61
2022/05/08 11:52:37;;;;;;;5.23;3.40;;;22.50;99.90;;;;;;5079179;28;20530;-61
2022/05/08 11:55:07;;;;;;;5.07;4.00;;;22.60;99.90;;;;;;5080500;28;20546;-60
2022/05/08 11:57:42;;;;;;;7.13;4.00;;;22.60;99.90;;;;;;5079350;28;20468;-61
2022/05/08 12:00:16;;;;;;;4.70;3.90;;;22.10;99.90;;;;;;5077345;28;20567;-61
2022/05/08 12:02:46;;;;;;;4.47;3.60;;;22.30;99.90;;;;;;5077016;28;20522;-61
2022/05/08 12:05:29;;;;;;;5.97;4.00;;;22.90;99.90;;;;;;5077764;28;20457;-60
2022/05/08 12:07:58;;;;;;;5.40;3.90;;;23.00;99.90;;;;;;5077509;28;20556;-60
2022/05/08 12:10:37;;;;;;;6.33;4.30;;;23.00;99.90;;;;;;5078454;28;20971;-61
2022/05/08 12:13:07;;;;;;;4.63;4.17;;;23.20;99.90;;;;;;5078607;28;20485;-61
2022/05/08 12:15:38;;;;;;;5.50;4.03;;;23.00;99.90;;;;;;5078631;28;20549;-61
2022/05/08 12:18:10;;;;;;;5.77;3.37;;;22.50;99.90;;;;;;5077976;28;20511;-60
2022/05/08 12:20:41;;;;;;;5.03;3.73;;;23.10;99.90;;;;;;5098995;28;20957;-61
2022/05/08 12:23:11;;;;;;;7.30;4.40;;;23.40;99.90;;;;;;5098442;28;20491;-60
2022/05/08 12:25:49;;;;;;;7.80;4.07;;;23.30;99.90;;;;;;5077443;28;20532;-61
2022/05/08 12:28:22;;;;;;;10.80;5.67;;;23.60;99.90;;;;;;5075919;28;20935;-60
2022/05/08 12:30:54;;;;;;;6.00;4.93;;;23.30;99.90;;;;;;5079254;28;20468;-60
2022/05/08 12:33:27;;;;;;;7.47;4.33;;;23.00;99.90;;;;;;5077993;28;20454;-61
2022/05/08 12:35:58;;;;;;;5.60;4.17;;;23.50;99.90;;;;;;5077809;28;20449;-60
2022/05/08 12:38:34;;;;;;;6.77;4.10;;;23.00;99.90;;;;;;5078232;28;20469;-60
2022/05/08 12:41:01;;;;;;;8.37;4.80;;;23.00;99.90;;;;;;5078502;28;20464;-60
2022/05/08 12:43:35;;;;;;;5.97;3.50;;;23.60;99.90;;;;;;5078907;28;20525;-60
2022/05/08 12:46:07;;;;;;;5.77;4.43;;;23.40;99.90;;;;;;5079227;28;20518;-60
2022/05/08 12:48:35;;;;;;;6.43;4.50;;;23.60;99.90;;;;;;5078429;28;20489;-60
2022/05/08 12:51:04;;;;;;;8.10;4.70;;;23.70;99.90;;;;;;5076768;28;20503;-61
2022/05/08 12:53:31;;;;;;;5.17;3.93;;;23.80;99.90;;;;;;5077667;28;20882;-60
2022/05/08 12:55:58;;;;;;;6.70;3.83;;;23.50;99.90;;;;;;5076950;28;20488;-61
2022/05/08 13:01:13;;;;;;;4.60;3.50;;;23.50;99.90;;;;;;5076000;28;20534;-61
2022/05/08 13:03:46;;;;;;;4.00;3.33;;;23.70;99.90;;;;;;5074827;28;20588;-60
2022/05/08 13:06:18;;;;;;;4.17;3.53;;;23.60;99.90;;;;;;5073769;28;20507;-61
2022/05/08 13:08:47;;;;;;;4.37;3.67;;;23.40;99.90;;;;;;5074573;28;20466;-60
2022/05/08 13:11:17;;;;;;;5.80;2.87;;;23.00;99.90;;;;;;5075699;28;20495;-59
2022/05/08 13:13:45;;;;;;;3.47;3.17;;;22.60;99.90;;;;;;5077314;28;20511;-60
2022/05/08 13:16:14;;;;;;;4.53;3.23;;;22.70;99.90;;;;;;5076622;28;20486;-61
2022/05/08 13:18:45;;;;;;;7.90;3.60;;;23.10;99.90;;;;;;5072712;28;20461;-60
2022/05/08 13:21:13;;;;;;;4.50;3.60;;;22.90;99.90;;;;;;5077308;28;20503;-60
2022/05/08 13:23:42;;;;;;;5.47;3.83;;;22.80;99.90;;;;;;5078325;28;20504;-61
2022/05/08 13:26:09;;;;;;;5.70;4.00;;;22.90;99.90;;;;;;5075626;28;20480;-61
2022/05/08 13:28:39;;;;;;;6.17;3.43;;;23.70;99.90;;;;;;5078125;28;20586;-61